createdAt,value
2022-10-29T00:00:39.981Z,99498.06
2022-10-29T00:03:07.049Z,99511.00
2022-10-29T00:05:34.468Z,99496.31
2022-10-29T00:08:01.485Z,99494.59
2022-10-29T00:10:28.959Z,99509.25
2022-10-29T00:12:55.691Z,99505.75
2022-10-29T00:15:22.289Z,99497.97
2022-10-29T00:17:48.792Z,99494.53
2022-10-29T00:20:15.454Z,99502.25
2022-10-29T00:22:41.951Z,99504.88
2022-10-29T00:25:08.761Z,99505.75
2022-10-29T00:27:35.314Z,99508.44
2022-10-29T00:30:01.828Z,99510.09
2022-10-29T00:32:28.329Z,99510.09
2022-10-29T00:34:54.875Z,99508.34
2022-10-29T00:37:21.418Z,99501.50
2022-10-29T00:39:47.911Z,99498.91
2022-10-29T00:42:16.298Z,99498.00
2022-10-29T00:44:43.173Z,99496.31
2022-10-29T00:47:15.498Z,99499.75
2022-10-29T00:49:43.077Z,99485.91
2022-10-29T00:52:10.645Z,99499.91
2022-10-29T00:54:42.682Z,99492.13
2022-10-29T00:57:29.882Z,99486.94
2022-10-29T00:59:56.643Z,99493.84
2022-10-29T01:02:23.679Z,99496.44
2022-10-29T01:04:53.131Z,99499.84
2022-10-29T01:07:22.298Z,99496.44
2022-10-29T01:09:50.058Z,99489.53
2022-10-29T01:12:42.036Z,99493.84
2022-10-29T01:15:08.562Z,99492.97
2022-10-29T01:17:58.117Z,99493.84
2022-10-29T01:20:52.518Z,99483.47
2022-10-29T01:23:39.925Z,99476.56
2022-10-29T01:26:22.145Z,99487.84
2022-10-29T01:29:16.207Z,99473.06
2022-10-29T01:32:05.106Z,99473.13
2022-10-29T01:34:43.328Z,99469.66
2022-10-29T01:37:21.222Z,99472.25
2022-10-29T01:40:23.818Z,99466.19
2022-10-29T01:43:05.104Z,99453.34
2022-10-29T01:45:43.089Z,99449.06
2022-10-29T01:48:13.893Z,99449.81
2022-10-29T01:50:44.519Z,99449.84
2022-10-29T01:53:11.627Z,99447.28
2022-10-29T01:55:38.315Z,99432.59
2022-10-29T01:58:06.667Z,99429.31
2022-10-29T02:01:11.104Z,99440.41
2022-10-29T02:03:50.181Z,99446.47
2022-10-29T02:06:31.523Z,99445.59
2022-10-29T02:09:10.363Z,99438.63
2022-10-29T02:11:39.507Z,99430.94
2022-10-29T02:14:12.784Z,99432.63
2022-10-29T02:16:40.389Z,99432.63
2022-10-29T02:19:06.959Z,99437.81
2022-10-29T02:21:33.499Z,99427.38
2022-10-29T02:24:00.050Z,99427.56
2022-10-29T02:26:26.594Z,99434.41
2022-10-29T02:28:53.163Z,99437.88
2022-10-29T02:31:19.721Z,99441.28
2022-10-29T02:33:46.225Z,99431.84
2022-10-29T02:36:12.797Z,99438.69
2022-10-29T02:38:39.371Z,99438.75
2022-10-29T02:41:05.899Z,99425.88
2022-10-29T02:43:32.415Z,99436.38
2022-10-29T02:46:18.546Z,99437.19
2022-10-29T02:48:45.604Z,99443.34
2022-10-29T02:51:12.916Z,99443.31
2022-10-29T02:53:41.954Z,99444.16
2022-10-29T02:56:08.680Z,99448.53
2022-10-29T02:58:35.690Z,99446.81
2022-10-29T03:01:02.358Z,99439.84
2022-10-29T03:03:29.028Z,99444.09
2022-10-29T03:05:55.570Z,99437.19
2022-10-29T03:08:22.350Z,99438.00
2022-10-29T03:10:48.885Z,99443.13
2022-10-29T03:13:15.583Z,99449.13
2022-10-29T03:15:45.432Z,99439.63
2022-10-29T03:18:12.450Z,99441.31
2022-10-29T03:20:39.034Z,99448.25
2022-10-29T03:23:05.675Z,99444.78
2022-10-29T03:25:32.291Z,99457.66
2022-10-29T03:27:59.049Z,99448.19
2022-10-29T03:30:25.698Z,99437.09
2022-10-29T03:32:52.944Z,99432.06
2022-10-29T03:35:19.532Z,99432.97
2022-10-29T03:37:49.767Z,99443.19
2022-10-29T03:40:17.276Z,99440.63
2022-10-29T03:42:43.861Z,99424.19
2022-10-29T03:45:11.046Z,99433.56
2022-10-29T03:47:37.946Z,99437.03
2022-10-29T03:50:04.753Z,99438.75
2022-10-29T03:52:31.294Z,99448.25
2022-10-29T03:54:57.887Z,99432.81
2022-10-29T03:57:24.396Z,99420.75
2022-10-29T03:59:52.593Z,99422.53
2022-10-29T04:02:19.678Z,99427.75
2022-10-29T04:04:46.377Z,99424.19
2022-10-29T04:07:13.026Z,99434.53
2022-10-29T04:09:39.587Z,99424.22
2022-10-29T04:12:06.630Z,99419.84
2022-10-29T04:14:33.237Z,99423.47
2022-10-29T04:17:00.028Z,99427.72
2022-10-29T04:19:26.600Z,99444.09
2022-10-29T04:32:45.823Z,99407.03
2022-10-29T04:35:12.330Z,99413.13
2022-10-29T04:37:38.874Z,99408.81
2022-10-29T04:40:05.907Z,99418.31
2022-10-29T04:42:39.533Z,99427.78
2022-10-29T04:45:06.861Z,99422.53
2022-10-29T04:47:33.688Z,99417.34
2022-10-29T04:50:00.254Z,99416.47
2022-10-29T04:52:27.012Z,99424.25
2022-10-29T04:54:53.526Z,99432.84
2022-10-29T04:57:20.101Z,99429.47
2022-10-29T04:59:46.617Z,99431.28
2022-10-29T05:02:13.135Z,99418.31
2022-10-29T05:04:39.646Z,99433.97
2022-10-29T05:07:06.160Z,99434.09
2022-10-29T05:09:32.663Z,99417.63
2022-10-29T05:11:59.187Z,99424.53
2022-10-29T05:14:25.682Z,99407.28
2022-10-29T05:16:52.266Z,99379.75
2022-10-29T05:19:18.889Z,99384.91
2022-10-29T05:21:45.394Z,99383.19
2022-10-29T05:24:11.888Z,99417.78
2022-10-29T05:26:38.442Z,99431.56
2022-10-29T05:29:04.991Z,99438.44
2022-10-29T05:31:31.483Z,99437.53
2022-10-29T05:33:58.031Z,99429.78
2022-10-29T05:36:24.567Z,99440.41
2022-10-29T05:38:51.118Z,99440.50
2022-10-29T05:41:17.651Z,99436.28
2022-10-29T05:43:44.158Z,99447.56
2022-10-29T05:46:10.659Z,99440.75
2022-10-29T05:48:37.255Z,99446.78
2022-10-29T05:51:04.506Z,99445.91
2022-10-29T05:53:31.013Z,99445.78
2022-10-29T05:55:58.829Z,99447.44
2022-10-29T05:58:25.431Z,99443.06
2022-10-29T06:00:51.942Z,99435.28
2022-10-29T06:03:22.010Z,99438.63
2022-10-29T06:05:49.631Z,99433.41
2022-10-29T06:08:17.118Z,99435.03
2022-10-29T06:10:43.700Z,99434.13
2022-10-29T06:13:17.929Z,99426.19
2022-10-29T06:15:45.438Z,99425.34
2022-10-29T06:18:12.458Z,99422.66
2022-10-29T06:20:39.833Z,99436.47
2022-10-29T06:23:06.671Z,99436.47
2022-10-29T06:25:33.552Z,99429.47
2022-10-29T06:28:02.235Z,99447.59
2022-10-29T06:30:30.508Z,99453.56
2022-10-29T06:32:57.358Z,99444.91
2022-10-29T06:35:24.286Z,99444.09
2022-10-29T06:37:50.926Z,99437.09
2022-10-29T06:40:17.694Z,99437.13
2022-10-29T06:42:44.682Z,99429.44
2022-10-29T06:45:11.872Z,99434.63
2022-10-29T06:47:42.733Z,99438.88
2022-10-29T06:50:10.635Z,99445.78
2022-10-29T06:52:37.676Z,99449.38
2022-10-29T06:55:05.583Z,99441.50
2022-10-29T06:57:32.395Z,99443.19
2022-10-29T07:00:02.407Z,99441.34
2022-10-29T07:02:32.286Z,99433.50
2022-10-29T07:04:58.875Z,99426.59
2022-10-29T07:07:28.366Z,99430.00
2022-10-29T07:09:54.913Z,99423.16
2022-10-29T07:12:21.437Z,99430.16
2022-10-29T07:14:47.950Z,99425.88
2022-10-29T07:17:14.464Z,99420.59
2022-10-29T07:19:40.949Z,99424.84
2022-10-29T07:22:07.497Z,99428.34
2022-10-29T07:24:34.044Z,99431.72
2022-10-29T07:27:01.886Z,99430.97
2022-10-29T07:29:28.726Z,99436.16
2022-10-29T07:31:55.268Z,99447.53
2022-10-29T07:34:21.773Z,99451.22
2022-10-29T07:36:48.288Z,99452.88
2022-10-29T07:39:14.851Z,99451.94
2022-10-29T07:41:41.358Z,99450.22
2022-10-29T07:44:10.131Z,99454.56
2022-10-29T07:46:36.660Z,99455.44
2022-10-29T07:49:03.377Z,99461.44
2022-10-29T07:51:29.963Z,99458.84
2022-10-29T07:53:56.477Z,99456.22
2022-10-29T07:56:22.990Z,99453.72
2022-10-29T07:58:49.544Z,99450.91
2022-10-29T08:01:16.178Z,99444.69
2022-10-29T08:03:43.170Z,99450.72
2022-10-29T08:06:09.709Z,99448.16
2022-10-29T08:08:36.411Z,99450.03
2022-10-29T08:11:04.656Z,99452.47
2022-10-29T08:13:31.408Z,99443.69
2022-10-29T08:15:57.932Z,99444.44
2022-10-29T08:18:24.581Z,99446.06
2022-10-29T08:20:51.268Z,99446.94
2022-10-29T08:23:17.853Z,99442.50
2022-10-29T08:25:44.839Z,99450.22
2022-10-29T08:28:14.140Z,99453.50
2022-10-29T08:30:41.967Z,99456.22
2022-10-29T08:33:10.985Z,99458.00
2022-10-29T08:35:37.659Z,99456.94
2022-10-29T08:38:04.183Z,99458.34
2022-10-29T08:40:49.479Z,99454.72
2022-10-29T08:43:44.579Z,99447.84
2022-10-29T08:46:20.181Z,99448.44
2022-10-29T08:48:53.467Z,99450.97
2022-10-29T08:51:24.826Z,99445.53
2022-10-29T08:54:17.323Z,99447.97
2022-10-29T08:56:48.879Z,99447.00
2022-10-29T08:59:18.619Z,99446.03
2022-10-29T09:01:45.527Z,99447.59
2022-10-29T09:04:18.129Z,99448.38
2022-10-29T09:07:02.858Z,99445.72
2022-10-29T09:09:39.939Z,99445.88
2022-10-29T09:12:44.063Z,99453.81
2022-10-29T09:15:13.689Z,99444.41
2022-10-29T09:18:02.359Z,99452.19
2022-10-29T09:20:50.172Z,99448.72
2022-10-29T09:23:53.721Z,99452.97
2022-10-29T09:26:40.447Z,99446.69
2022-10-29T09:29:27.862Z,99443.16
2022-10-29T09:32:01.688Z,99447.41
2022-10-29T09:34:40.204Z,99436.94
2022-10-29T09:37:20.112Z,99443.84
2022-10-29T09:39:47.938Z,99439.38
2022-10-29T09:42:41.986Z,99436.66
2022-10-29T09:45:16.121Z,99445.13
2022-10-29T09:48:09.924Z,99445.16
2022-10-29T09:50:56.755Z,99443.53
2022-10-29T09:53:23.625Z,99443.78
2022-10-29T09:55:54.005Z,99436.84
2022-10-29T09:58:23.458Z,99436.78
2022-10-29T10:00:50.936Z,99441.09
2022-10-29T10:03:33.927Z,99440.22
2022-10-29T10:06:03.567Z,99429.78
2022-10-29T10:08:31.214Z,99427.06
2022-10-29T10:11:04.915Z,99433.00
2022-10-29T10:13:37.460Z,99432.91
2022-10-29T10:16:06.710Z,99431.13
2022-10-29T10:18:33.473Z,99432.91
2022-10-29T10:21:06.583Z,99429.31
2022-10-29T10:23:53.085Z,99429.25
2022-10-29T10:26:42.962Z,99428.16
2022-10-29T10:29:21.469Z,99428.88
2022-10-29T10:31:50.990Z,99425.69
2022-10-29T10:34:20.417Z,99428.25
2022-10-29T10:39:44.104Z,99420.31
2022-10-29T10:42:25.590Z,99414.09
2022-10-29T10:44:57.939Z,99413.84
2022-10-29T10:47:28.502Z,99414.81
2022-10-29T10:50:11.369Z,99415.38
2022-10-29T10:52:37.978Z,99416.03
2022-10-29T10:55:15.061Z,99414.34
2022-10-29T10:57:50.190Z,99399.66
2022-10-29T11:00:19.993Z,99393.28
2022-10-29T11:03:14.213Z,99381.00
2022-10-29T11:05:47.642Z,99383.41
2022-10-29T11:08:19.682Z,99371.22
2022-10-29T11:10:52.179Z,99374.63
2022-10-29T11:13:29.532Z,99374.50
2022-10-29T11:16:02.114Z,99375.25
2022-10-29T11:18:37.962Z,99378.59
2022-10-29T11:21:26.403Z,99387.28
2022-10-29T11:24:02.116Z,99386.38
2022-10-29T11:26:40.971Z,99387.28
2022-10-29T11:29:25.877Z,99385.66
2022-10-29T11:32:14.080Z,99390.03
2022-10-29T11:34:56.935Z,99388.34
2022-10-29T11:37:28.436Z,99391.88
2022-10-29T11:40:29.835Z,99389.34
2022-10-29T11:42:56.480Z,99394.50
2022-10-29T11:45:33.389Z,99391.81
2022-10-29T11:48:21.921Z,99384.84
2022-10-29T11:51:07.384Z,99388.19
2022-10-29T11:53:34.170Z,99393.31
2022-10-29T11:56:06.713Z,99386.25
2022-10-29T11:59:16.767Z,99381.13
2022-10-29T12:01:57.576Z,99380.22
2022-10-29T12:04:33.161Z,99366.41
2022-10-29T12:07:30.768Z,99356.06
2022-10-29T12:10:25.241Z,99342.34
2022-10-29T12:13:19.556Z,99346.53
2022-10-29T12:16:33.277Z,99335.38
2022-10-29T12:19:25.836Z,99332.00
2022-10-29T12:21:59.831Z,99325.78
2022-10-29T12:25:03.216Z,99330.13
2022-10-29T12:27:36.287Z,99320.69
2022-10-29T12:30:06.118Z,99317.16
2022-10-29T12:32:59.729Z,99310.25
2022-10-29T12:35:59.937Z,99320.75
2022-10-29T12:38:37.515Z,99314.69
2022-10-29T12:41:10.148Z,99314.69
2022-10-29T12:43:39.999Z,99307.91
2022-10-29T12:46:32.758Z,99312.19
2022-10-29T12:49:20.596Z,99311.19
2022-10-29T12:51:58.454Z,99305.03
2022-10-29T12:54:41.187Z,99305.91
2022-10-29T12:57:13.502Z,99302.53
2022-10-29T12:59:41.964Z,99309.47
2022-10-29T13:02:27.336Z,99301.56
2022-10-29T13:05:05.948Z,99289.50
2022-10-29T13:07:33.626Z,99298.97
2022-10-29T13:10:22.012Z,99302.38
2022-10-29T13:13:19.929Z,99299.84
2022-10-29T13:16:02.353Z,99295.59
2022-10-29T13:18:35.481Z,99274.84
2022-10-29T13:21:04.278Z,99274.84
2022-10-29T13:23:31.819Z,99274.84
2022-10-29T13:25:59.681Z,99273.94
2022-10-29T13:28:26.127Z,99272.25
2022-10-29T13:31:32.896Z,99272.31
2022-10-29T13:33:59.425Z,99278.44
2022-10-29T13:36:25.919Z,99273.25
2022-10-29T13:39:06.061Z,99274.16
2022-10-29T13:41:43.738Z,99281.09
2022-10-29T13:44:16.443Z,99262.13
2022-10-29T13:46:55.291Z,99253.56
2022-10-29T13:49:36.735Z,99246.75
2022-10-29T13:52:08.601Z,99240.78
2022-10-29T13:54:43.784Z,99247.69
2022-10-29T13:57:19.439Z,99255.47
2022-10-29T14:00:11.319Z,99269.53
2022-10-29T14:02:43.963Z,99270.31
2022-10-29T14:05:39.079Z,99282.47
2022-10-29T14:08:25.264Z,99266.94
2022-10-29T14:10:59.489Z,99259.16
2022-10-29T14:13:34.357Z,99251.34
2022-10-29T14:16:06.908Z,99250.63
2022-10-29T14:18:41.726Z,99242.03
2022-10-29T14:21:14.290Z,99248.16
2022-10-29T14:23:53.952Z,99246.47
2022-10-29T14:28:52.962Z,99250.81
2022-10-29T14:31:24.799Z,99261.31
2022-10-29T14:33:56.981Z,99256.09
2022-10-29T14:36:35.471Z,99253.50
2022-10-29T14:39:08.124Z,99258.69
2022-10-29T14:41:39.249Z,99269.19
2022-10-29T14:44:18.952Z,99251.88
2022-10-29T14:47:18.109Z,99255.28
2022-10-29T14:49:48.759Z,99262.25
2022-10-29T14:52:37.886Z,99263.09
2022-10-29T14:55:45.247Z,99261.41
2022-10-29T14:58:11.832Z,99268.44
2022-10-29T15:00:40.617Z,99268.59
2022-10-29T15:03:08.035Z,99272.00
2022-10-29T15:05:37.052Z,99271.13
2022-10-29T15:08:09.696Z,99278.94
2022-10-29T15:10:51.050Z,99274.66
2022-10-29T15:13:29.838Z,99271.19
2022-10-29T15:16:03.449Z,99268.66
2022-10-29T15:18:32.108Z,99274.69
2022-10-29T15:20:59.056Z,99271.31
2022-10-29T15:23:35.643Z,99268.72
2022-10-29T15:26:05.550Z,99262.75
2022-10-29T15:28:39.142Z,99259.28
2022-10-29T15:31:06.619Z,99265.41
2022-10-29T15:33:36.925Z,99267.13
2022-10-29T15:36:05.368Z,99266.34
2022-10-29T15:38:34.291Z,99269.81
2022-10-29T15:41:18.977Z,99273.28
2022-10-29T15:43:50.656Z,99263.81
2022-10-29T15:46:28.792Z,99276.75
2022-10-29T15:48:55.687Z,99274.28
2022-10-29T15:51:27.136Z,99278.59
2022-10-29T15:53:56.524Z,99279.41
2022-10-29T15:56:24.300Z,99270.88
2022-10-29T15:58:52.480Z,99272.66
2022-10-29T16:01:19.261Z,99274.38
2022-10-29T16:03:45.990Z,99276.94
2022-10-29T16:06:15.205Z,99283.88
2022-10-29T16:08:43.321Z,99282.19
2022-10-29T16:11:14.931Z,99283.06
2022-10-29T16:13:41.528Z,99270.16
2022-10-29T16:16:17.408Z,99276.19
2022-10-29T16:18:44.948Z,99280.50
2022-10-29T16:21:15.193Z,99274.50
2022-10-29T16:23:41.765Z,99268.47
2022-10-29T16:26:15.291Z,99277.06
2022-10-29T16:28:44.252Z,99279.75
2022-10-29T16:31:24.887Z,99265.88
2022-10-29T16:33:53.658Z,99264.13
2022-10-29T16:36:20.515Z,99263.19
2022-10-29T16:38:47.124Z,99264.94
2022-10-29T16:41:15.608Z,99261.47
2022-10-29T16:43:43.127Z,99263.28
2022-10-29T16:46:09.966Z,99274.41
2022-10-29T16:48:36.898Z,99273.53
2022-10-29T16:51:03.830Z,99270.13
2022-10-29T16:53:30.416Z,99270.06
2022-10-29T16:55:57.037Z,99272.66
2022-10-29T16:58:23.669Z,99271.06
2022-10-29T17:00:50.368Z,99264.06
2022-10-29T17:03:18.194Z,99258.09
2022-10-29T17:05:46.194Z,99257.22
2022-10-29T17:08:13.031Z,99267.63
2022-10-29T17:10:39.964Z,99271.06
2022-10-29T17:13:11.837Z,99271.91
2022-10-29T17:15:41.413Z,99255.50
2022-10-29T17:18:08.264Z,99257.28
2022-10-29T17:20:34.853Z,99258.16
2022-10-29T17:23:01.368Z,99259.06
2022-10-29T17:25:27.905Z,99259.91
2022-10-29T17:27:54.775Z,99267.75
2022-10-29T17:30:21.533Z,99273.81
2022-10-29T17:32:48.059Z,99264.31
2022-10-29T17:35:14.623Z,99270.34
2022-10-29T17:37:41.163Z,99277.28
2022-10-29T17:40:08.427Z,99279.94
2022-10-29T17:42:35.619Z,99284.25
2022-10-29T17:45:02.243Z,99292.91
2022-10-29T17:47:29.811Z,99292.88
2022-10-29T17:49:56.393Z,99295.50
2022-10-29T17:52:22.989Z,99287.75
2022-10-29T17:54:49.594Z,99294.78
2022-10-29T17:57:16.098Z,99291.38
2022-10-29T17:59:42.661Z,99293.88
2022-10-29T18:02:11.063Z,99292.19
2022-10-29T18:04:37.839Z,99288.78
2022-10-29T18:07:04.365Z,99285.38
2022-10-29T18:09:30.990Z,99293.97
2022-10-29T18:11:57.551Z,99294.06
2022-10-29T18:14:24.182Z,99280.19
2022-10-29T18:16:50.804Z,99274.16
2022-10-29T18:19:17.386Z,99264.69
2022-10-29T18:21:44.014Z,99268.09
2022-10-29T18:24:10.827Z,99271.50
2022-10-29T18:26:37.486Z,99269.88
2022-10-29T18:29:10.310Z,99266.38
2022-10-29T18:31:37.904Z,99253.44
2022-10-29T18:34:07.643Z,99257.81
2022-10-29T18:36:35.862Z,99254.31
2022-10-29T18:39:04.196Z,99258.59
2022-10-29T18:41:31.046Z,99253.38
2022-10-29T18:43:58.882Z,99253.38
2022-10-29T18:46:25.844Z,99254.25
2022-10-29T18:48:52.873Z,99255.16
2022-10-29T18:51:25.333Z,99244.81
2022-10-29T18:53:53.526Z,99250.03
2022-10-29T18:56:21.679Z,99249.13
2022-10-29T18:58:48.366Z,99243.06
2022-10-29T19:01:17.403Z,99242.13
2022-10-29T19:03:44.466Z,99233.59
2022-10-29T19:06:13.192Z,99238.72
2022-10-29T19:08:42.389Z,99235.28
2022-10-29T19:11:11.871Z,99237.97
2022-10-29T19:13:38.424Z,99242.38
2022-10-29T19:16:13.051Z,99246.56
2022-10-29T19:18:40.836Z,99241.38
2022-10-29T19:21:09.782Z,99241.41
2022-10-29T19:23:36.804Z,99248.34
2022-10-29T19:26:17.153Z,99241.56
2022-10-29T19:28:45.730Z,99238.09
2022-10-29T19:31:15.781Z,99239.03
2022-10-29T19:33:42.962Z,99233.00
2022-10-29T19:36:09.968Z,99235.69
2022-10-29T19:38:36.546Z,99245.97
2022-10-29T19:41:03.274Z,99236.47
2022-10-29T19:43:30.439Z,99240.78
2022-10-29T19:45:57.699Z,99241.63
2022-10-29T19:48:25.397Z,99245.97
2022-10-29T19:50:56.583Z,99236.47
2022-10-29T19:53:24.266Z,99233.00
2022-10-29T19:55:51.571Z,99240.03
2022-10-29T19:58:19.275Z,99242.56
2022-10-29T20:00:45.980Z,99240.88
2022-10-29T20:03:13.707Z,99243.44
2022-10-29T20:05:41.521Z,99243.47
2022-10-29T20:08:11.508Z,99247.84
2022-10-29T20:10:41.433Z,99246.94
2022-10-29T20:13:08.045Z,99245.16
2022-10-29T20:15:34.607Z,99238.25
2022-10-29T20:18:01.310Z,99240.06
2022-10-29T20:20:27.961Z,99232.38
2022-10-29T20:22:55.059Z,99234.16
2022-10-29T20:25:24.000Z,99242.75
2022-10-29T20:27:50.961Z,99240.19
2022-10-29T20:30:17.876Z,99248.81
2022-10-29T20:32:44.413Z,99241.84
2022-10-29T20:35:10.948Z,99241.94
2022-10-29T20:37:37.513Z,99251.41
2022-10-29T20:40:05.282Z,99251.41
2022-10-29T20:42:31.890Z,99248.00
2022-10-29T20:44:58.400Z,99248.81
2022-10-29T20:47:25.166Z,99243.66
2022-10-29T20:49:51.692Z,99252.31
2022-10-29T20:52:18.274Z,99253.19
2022-10-29T20:54:44.785Z,99247.22
2022-10-29T20:57:11.344Z,99236.84
2022-10-29T20:59:37.947Z,99240.25
2022-10-29T21:02:04.617Z,99232.44
2022-10-29T21:04:31.262Z,99226.41
2022-10-29T21:06:57.812Z,99225.59
2022-10-29T21:09:24.430Z,99223.88
2022-10-29T21:11:50.930Z,99222.13
2022-10-29T21:14:17.473Z,99228.25
2022-10-29T21:16:44.021Z,99225.63
2022-10-29T21:19:10.785Z,99218.00
2022-10-29T21:21:38.086Z,99217.25
2022-10-29T21:24:04.749Z,99216.31
2022-10-29T21:26:31.255Z,99225.81
2022-10-29T21:28:58.225Z,99219.00
2022-10-29T21:31:25.275Z,99217.22
2022-10-29T21:33:53.038Z,99222.41
2022-10-29T21:36:20.186Z,99224.16
2022-10-29T21:38:46.934Z,99215.47
2022-10-29T21:41:13.930Z,99210.28
2022-10-29T21:43:40.519Z,99212.94
2022-10-29T21:46:07.767Z,99206.84
2022-10-29T21:48:34.715Z,99194.75
2022-10-29T21:51:05.886Z,99198.34
2022-10-29T21:53:32.803Z,99196.56
2022-10-29T21:56:01.821Z,99193.91
2022-10-29T21:58:28.771Z,99194.78
2022-10-29T22:01:06.145Z,99192.16
2022-10-29T22:03:34.169Z,99194.94
2022-10-29T22:06:02.628Z,99194.84
2022-10-29T22:08:29.206Z,99190.56
2022-10-29T22:10:59.650Z,99198.25
2022-10-29T22:13:30.879Z,99193.06
2022-10-29T22:15:57.460Z,99190.50
2022-10-29T22:18:24.918Z,99187.09
2022-10-29T22:21:02.702Z,99189.75
2022-10-29T22:23:29.228Z,99193.25
2022-10-29T22:25:55.772Z,99188.06
2022-10-29T22:28:22.260Z,99182.03
2022-10-29T22:30:48.772Z,99177.72
2022-10-29T22:33:15.707Z,99179.44
2022-10-29T22:35:42.254Z,99169.94
2022-10-29T22:38:08.766Z,99167.44
2022-10-29T22:40:40.980Z,99164.91
2022-10-29T22:43:07.586Z,99170.91
2022-10-29T22:45:34.152Z,99170.03
2022-10-29T22:48:00.662Z,99157.19
2022-10-29T22:50:27.191Z,99177.81
2022-10-29T22:52:53.737Z,99181.22
2022-10-29T22:55:20.346Z,99176.91
2022-10-29T22:57:46.905Z,99173.44
2022-10-29T23:00:14.044Z,99170.91
2022-10-29T23:02:40.609Z,99169.16
2022-10-29T23:05:07.318Z,99168.31
2022-10-29T23:07:33.895Z,99170.00
2022-10-29T23:10:00.410Z,99177.81
2022-10-29T23:12:26.959Z,99168.41
2022-10-29T23:14:53.501Z,99164.03
2022-10-29T23:17:19.996Z,99160.75
2022-10-29T23:19:46.599Z,99167.72
2022-10-29T23:24:39.601Z,99165.94
2022-10-29T23:27:06.129Z,99166.72
2022-10-29T23:29:32.649Z,99158.03
2022-10-29T23:31:59.236Z,99167.53
2022-10-29T23:34:25.807Z,99155.47
2022-10-29T23:39:23.732Z,99151.19
2022-10-29T23:41:50.287Z,99152.91
2022-10-29T23:44:16.811Z,99152.91
2022-10-29T23:46:43.346Z,99159.94
2022-10-29T23:49:10.587Z,99153.94
2022-10-29T23:51:37.106Z,99157.34
2022-10-29T23:54:03.800Z,99155.63
2022-10-29T23:56:30.330Z,99155.63
2022-10-29T23:58:56.843Z,99155.63
